Terminal Aerodrome Forecast
Issued by NWS Twin Cities, MN

Home | Current Version | Previous Version | Graphics & Text | Print | Product List | Glossary On
Versions: 1 2 3 4 5 6 7 8 9 10 11 12 13 14 15 16 17 18
000
FTUS43 KMPX 021728
TAFSTC
TAF
KSTC 021728Z 0218/0318 16009KT P6SM FEW250
     FM022200 16012KT P6SM FEW070 BKN100
     FM030400 16012KT 3SM -SN BR OVC025
     FM030700 15008KT 1 1/2SM -SN BR OVC007
     FM031100 18008KT 1/2SM SN FZFG OVC005
     FM031700 25013G18KT 1/2SM SN FZFG OVC005=

USA.gov is the U.S. government's official web portal to all federal, state and local government web resources and services.